Jordan, MT (59337)

6:10 PM MDT on May 26, 2017 (GMT -0600)
Wokal-Glasgow International | | Change Station

Elev 2293 ft 48.21 °N, 106.61 °W | Updated 17 minutes ago

Partly Cloudy
Partly Cloudy
57 °F
Feels Like 57 °F
N
26
Wind Variable Wind from NW
Gusts 30 mph

Today
High -- | Low -- °F
--% Chance of Precip.
Yesterday
High -- | Low -- °F
Precip. -- in
Pressure 29.88 in
Visibility 10.0 miles
Clouds Scattered Clouds 6000 ft
Mostly Cloudy 7500 ft
Overcast 9000 ft
Dew Point 41 °F
Humidity 55%
Rainfall 0.00 in
Snow Depth Not available.
5:19 AM 8:50 PM
New Moon, 2% visible
METAR KGGW 262353Z AUTO 31023G26KT 10SM -RA SCT060 BKN075 OVC090 14/05 A2986 RMK AO2 PK WND 31028/2353 WSHFT 2318 RAB49 SLP118 P0000 60000 T01390050 10217 20139 53012
Pressure 29.88 in
Visibility 10.0 miles
Clouds Scattered Clouds 6000 ft
Mostly Cloudy 7500 ft
Overcast 9000 ft
Dew Point 41 °F
Humidity 55%
Rainfall 0.00 in
Snow Depth Not available.
5:19 AM 8:50 PM
New Moon, 2% visible
METAR KGGW 262353Z AUTO 31023G26KT 10SM -RA SCT060 BKN075 OVC090 14/05 A2986 RMK AO2 PK WND 31028/2353 WSHFT 2318 RAB49 SLP118 P0000 60000 T01390050 10217 20139 53012

Get Severe Weather Alerts

Thanks for signing up!

Be on the lookout for a verification email in your inbox.

You'll start receiving the daily forecast at 6 AM.

×

10-Day Weather Forecast

Almanac

Astronomy

May. 26, 2017 Rise Set
Actual Time
Civil Twilight
Nautical Twilight
Astronomical Twilight
Moon
Length of Visible Light
Length of Day
Tomorrow will be .
, % of the Moon is Illuminated

Today's Extremes

State Highs State Lows

Community

WunderPhotos

Category 6

Welcome to Category 6. This is the collective home for Weather Underground's featured writeups by Dr. Jeff Masters (right), Bob Henson (left), Chris Burt, and other regular contributors.

Nearby

Air Quality

  Air Quality AQ Index Pollutant
Not available.

Snow Depth

Station Depth Elevation

Earthquake Activity

City Distance Mag. Time & Date
Minimum magnitude displayed is 2.5.

Coastal Water Temperatures

Place Temperature

Stations

Nearby Weather Stations

Station Location Temp. Windchill Dew Point Humidity Wind Precip. Elev Updated Type
                   

Watches & Warnings

There are currently no watches in effect.